sensor_id;sensor_type;location;lat;lon;timestamp;pressure;altitude;pressure_sealevel;temperature;humidity
75594;BME280;64176;49.156;7.810;2023-07-30T00:02:43;98704.63;;;17.30;100.00
75594;BME280;64176;49.156;7.810;2023-07-30T00:05:29;98700.09;;;17.35;100.00
75594;BME280;64176;49.156;7.810;2023-07-30T00:08:13;98705.28;;;17.37;100.00
75594;BME280;64176;49.156;7.810;2023-07-30T00:10:57;98711.38;;;17.37;100.00
75594;BME280;64176;49.156;7.810;2023-07-30T00:13:42;98705.59;;;17.28;100.00
75594;BME280;64176;49.156;7.810;2023-07-30T00:16:26;98697.47;;;17.37;100.00
75594;BME280;64176;49.156;7.810;2023-07-30T00:19:11;98706.69;;;17.48;100.00
75594;BME280;64176;49.156;7.810;2023-07-30T00:21:57;98706.88;;;17.42;100.00
75594;BME280;64176;49.156;7.810;2023-07-30T00:24:41;98706.88;;;17.42;100.00
75594;BME280;64176;49.156;7.810;2023-07-30T00:27:25;98710.19;;;17.47;100.00
75594;BME280;64176;49.156;7.810;2023-07-30T00:30:10;98711.97;;;17.45;100.00
75594;BME280;64176;49.156;7.810;2023-07-30T00:32:56;98707.78;;;17.41;100.00
75594;BME280;64176;49.156;7.810;2023-07-30T00:35:40;98707.69;;;17.44;100.00
75594;BME280;64176;49.156;7.810;2023-07-30T00:38:24;98723.78;;;17.31;100.00
75594;BME280;64176;49.156;7.810;2023-07-30T00:41:12;98721.00;;;17.35;100.00
75594;BME280;64176;49.156;7.810;2023-07-30T00:43:56;98715.13;;;17.57;100.00
75594;BME280;64176;49.156;7.810;2023-07-30T00:46:40;98708.00;;;17.63;100.00
75594;BME280;64176;49.156;7.810;2023-07-30T00:49:24;98712.88;;;17.74;100.00
75594;BME280;64176;49.156;7.810;2023-07-30T00:52:08;98702.56;;;17.69;100.00
75594;BME280;64176;49.156;7.810;2023-07-30T00:54:54;98710.88;;;17.54;100.00
75594;BME280;64176;49.156;7.810;2023-07-30T00:57:41;98697.84;;;17.53;100.00
75594;BME280;64176;49.156;7.810;2023-07-30T01:00:25;98708.00;;;17.62;100.00
75594;BME280;64176;49.156;7.810;2023-07-30T01:03:10;98717.53;;;17.64;100.00
75594;BME280;64176;49.156;7.810;2023-07-30T01:05:57;98717.59;;;17.61;100.00
75594;BME280;64176;49.156;7.810;2023-07-30T01:08:42;98722.72;;;17.66;100.00
75594;BME280;64176;49.156;7.810;2023-07-30T01:11:27;98727.25;;;17.59;100.00
75594;BME280;64176;49.156;7.810;2023-07-30T01:14:14;98723.72;;;17.60;100.00
75594;BME280;64176;49.156;7.810;2023-07-30T01:16:59;98725.09;;;17.73;100.00
75594;BME280;64176;49.156;7.810;2023-07-30T01:19:46;98731.09;;;17.77;100.00
75594;BME280;64176;49.156;7.810;2023-07-30T01:22:31;98730.06;;;17.81;100.00
75594;BME280;64176;49.156;7.810;2023-07-30T01:25:15;98732.03;;;17.74;100.00
75594;BME280;64176;49.156;7.810;2023-07-30T01:28:01;98721.16;;;17.59;100.00
75594;BME280;64176;49.156;7.810;2023-07-30T01:30:46;98739.06;;;17.72;100.00
75594;BME280;64176;49.156;7.810;2023-07-30T01:33:30;98734.69;;;17.73;100.00
75594;BME280;64176;49.156;7.810;2023-07-30T01:36:19;98736.78;;;17.60;100.00
75594;BME280;64176;49.156;7.810;2023-07-30T01:39:06;98723.94;;;17.54;100.00
75594;BME280;64176;49.156;7.810;2023-07-30T01:41:56;98735.72;;;17.67;100.00
75594;BME280;64176;49.156;7.810;2023-07-30T01:44:41;98726.28;;;17.63;100.00
75594;BME280;64176;49.156;7.810;2023-07-30T01:47:27;98726.84;;;17.73;100.00
75594;BME280;64176;49.156;7.810;2023-07-30T01:50:11;98726.28;;;17.62;100.00
75594;BME280;64176;49.156;7.810;2023-07-30T01:52:55;98719.34;;;17.61;100.00
75594;BME280;64176;49.156;7.810;2023-07-30T01:55:42;98722.00;;;17.59;100.00
75594;BME280;64176;49.156;7.810;2023-07-30T01:58:29;98737.50;;;17.67;100.00
75594;BME280;64176;49.156;7.810;2023-07-30T02:01:13;98743.72;;;17.63;100.00
75594;BME280;64176;49.156;7.810;2023-07-30T02:03:57;98740.94;;;17.67;100.00
75594;BME280;64176;49.156;7.810;2023-07-30T02:06:41;98741.97;;;17.62;100.00
75594;BME280;64176;49.156;7.810;2023-07-30T02:09:26;98731.59;;;17.59;100.00
75594;BME280;64176;49.156;7.810;2023-07-30T02:12:12;98729.56;;;17.40;100.00
75594;BME280;64176;49.156;7.810;2023-07-30T02:14:56;98731.91;;;17.50;100.00
75594;BME280;64176;49.156;7.810;2023-07-30T02:17:40;98732.31;;;17.65;100.00
75594;BME280;64176;49.156;7.810;2023-07-30T02:20:24;98734.09;;;17.65;100.00
75594;BME280;64176;49.156;7.810;2023-07-30T02:23:08;98733.41;;;17.57;100.00
75594;BME280;64176;49.156;7.810;2023-07-30T02:25:52;98731.50;;;17.63;100.00
75594;BME280;64176;49.156;7.810;2023-07-30T02:28:36;98745.34;;;17.67;100.00
75594;BME280;64176;49.156;7.810;2023-07-30T02:31:20;98737.66;;;17.61;100.00
75594;BME280;64176;49.156;7.810;2023-07-30T02:34:04;98737.31;;;17.73;100.00
75594;BME280;64176;49.156;7.810;2023-07-30T02:36:48;98742.88;;;17.61;100.00
75594;BME280;64176;49.156;7.810;2023-07-30T02:39:35;98741.31;;;17.55;100.00
75594;BME280;64176;49.156;7.810;2023-07-30T02:42:19;98746.38;;;17.60;100.00
75594;BME280;64176;49.156;7.810;2023-07-30T02:45:05;98745.44;;;17.62;100.00
75594;BME280;64176;49.156;7.810;2023-07-30T02:47:52;98748.75;;;17.69;100.00
75594;BME280;64176;49.156;7.810;2023-07-30T02:50:36;98740.13;;;17.67;100.00
75594;BME280;64176;49.156;7.810;2023-07-30T02:53:20;98741.25;;;17.57;100.00
75594;BME280;64176;49.156;7.810;2023-07-30T02:56:04;98741.22;;;17.58;100.00
75594;BME280;64176;49.156;7.810;2023-07-30T02:58:48;98743.47;;;17.70;100.00
75594;BME280;64176;49.156;7.810;2023-07-30T03:01:32;98748.53;;;17.76;100.00
75594;BME280;64176;49.156;7.810;2023-07-30T03:04:16;98743.19;;;17.79;100.00
75594;BME280;64176;49.156;7.810;2023-07-30T03:06:59;98744.38;;;17.69;100.00
75594;BME280;64176;49.156;7.810;2023-07-30T03:09:45;98747.03;;;17.68;100.00
75594;BME280;64176;49.156;7.810;2023-07-30T03:12:32;98750.25;;;17.77;100.00
75594;BME280;64176;49.156;7.810;2023-07-30T03:15:15;98749.44;;;17.75;100.00
75594;BME280;64176;49.156;7.810;2023-07-30T03:17:59;98741.75;;;17.69;100.00
75594;BME280;64176;49.156;7.810;2023-07-30T03:20:43;98752.00;;;17.77;100.00
75594;BME280;64176;49.156;7.810;2023-07-30T03:23:28;98755.84;;;17.65;100.00
75594;BME280;64176;49.156;7.810;2023-07-30T03:26:12;98752.22;;;17.69;100.00
75594;BME280;64176;49.156;7.810;2023-07-30T03:28:56;98763.72;;;17.64;100.00
75594;BME280;64176;49.156;7.810;2023-07-30T03:31:40;98766.19;;;17.68;100.00
75594;BME280;64176;49.156;7.810;2023-07-30T03:34:26;98757.47;;;17.68;100.00
75594;BME280;64176;49.156;7.810;2023-07-30T03:37:10;98766.31;;;17.65;100.00
75594;BME280;64176;49.156;7.810;2023-07-30T03:39:57;98756.78;;;17.63;100.00
75594;BME280;64176;49.156;7.810;2023-07-30T03:42:40;98763.66;;;17.67;100.00
75594;BME280;64176;49.156;7.810;2023-07-30T03:45:25;98757.41;;;17.71;100.00
75594;BME280;64176;49.156;7.810;2023-07-30T03:48:08;98729.03;;;17.57;100.00
75594;BME280;64176;49.156;7.810;2023-07-30T03:50:53;98743.06;;;17.55;100.00
75594;BME280;64176;49.156;7.810;2023-07-30T03:53:37;98739.56;;;17.56;100.00
75594;BME280;64176;49.156;7.810;2023-07-30T03:56:21;98749.91;;;17.59;100.00
75594;BME280;64176;49.156;7.810;2023-07-30T03:59:06;98763.22;;;17.51;100.00
75594;BME280;64176;49.156;7.810;2023-07-30T04:01:50;98765.88;;;17.50;100.00
75594;BME280;64176;49.156;7.810;2023-07-30T04:04:34;98759.81;;;17.47;100.00
75594;BME280;64176;49.156;7.810;2023-07-30T04:07:18;98767.78;;;17.44;100.00
75594;BME280;64176;49.156;7.810;2023-07-30T04:10:02;98775.63;;;17.44;100.00
75594;BME280;64176;49.156;7.810;2023-07-30T04:12:46;98770.97;;;17.54;100.00
75594;BME280;64176;49.156;7.810;2023-07-30T04:15:30;98786.41;;;17.62;100.00
75594;BME280;64176;49.156;7.810;2023-07-30T04:18:14;98781.59;;;17.48;100.00
75594;BME280;64176;49.156;7.810;2023-07-30T04:20:58;98781.59;;;17.48;100.00
75594;BME280;64176;49.156;7.810;2023-07-30T04:23:48;98795.28;;;17.56;100.00
75594;BME280;64176;49.156;7.810;2023-07-30T04:26:32;98790.53;;;17.70;100.00
75594;BME280;64176;49.156;7.810;2023-07-30T04:29:16;98793.22;;;17.67;100.00
75594;BME280;64176;49.156;7.810;2023-07-30T04:32:01;98782.97;;;17.60;100.00
75594;BME280;64176;49.156;7.810;2023-07-30T04:34:45;98796.53;;;17.74;100.00
75594;BME280;64176;49.156;7.810;2023-07-30T04:37:29;98794.94;;;17.68;100.00
75594;BME280;64176;49.156;7.810;2023-07-30T04:40:13;98792.47;;;17.64;100.00
75594;BME280;64176;49.156;7.810;2023-07-30T04:42:57;98793.38;;;17.61;100.00
75594;BME280;64176;49.156;7.810;2023-07-30T04:45:42;98797.75;;;17.61;100.00
75594;BME280;64176;49.156;7.810;2023-07-30T04:48:26;98795.28;;;17.56;100.00
75594;BME280;64176;49.156;7.810;2023-07-30T04:51:11;98793.47;;;17.58;100.00
75594;BME280;64176;49.156;7.810;2023-07-30T04:53:55;98793.38;;;17.63;100.00
75594;BME280;64176;49.156;7.810;2023-07-30T04:56:39;98792.78;;;17.53;100.00
75594;BME280;64176;49.156;7.810;2023-07-30T04:59:25;98795.94;;;17.64;100.00
75594;BME280;64176;49.156;7.810;2023-07-30T05:02:09;98790.53;;;17.70;100.00
75594;BME280;64176;49.156;7.810;2023-07-30T05:04:53;98786.31;;;17.66;100.00
75594;BME280;64176;49.156;7.810;2023-07-30T05:07:37;98784.38;;;17.71;100.00
75594;BME280;64176;49.156;7.810;2023-07-30T05:10:21;98786.63;;;17.83;100.00
75594;BME280;64176;49.156;7.810;2023-07-30T05:13:05;98776.22;;;17.82;100.00
75594;BME280;64176;49.156;7.810;2023-07-30T05:15:49;98779.63;;;17.84;100.00
75594;BME280;64176;49.156;7.810;2023-07-30T05:18:33;98793.19;;;17.97;100.00
75594;BME280;64176;49.156;7.810;2023-07-30T05:21:16;98796.56;;;18.00;100.00
75594;BME280;64176;49.156;7.810;2023-07-30T05:24:03;98786.94;;;18.01;100.00
75594;BME280;64176;49.156;7.810;2023-07-30T05:26:47;98787.41;;;17.87;100.00
75594;BME280;64176;49.156;7.810;2023-07-30T05:29:31;98789.81;;;17.93;100.00
75594;BME280;64176;49.156;7.810;2023-07-30T05:32:15;98794.69;;;18.04;100.00
75594;BME280;64176;49.156;7.810;2023-07-30T05:34:59;98795.84;;;17.95;100.00
75594;BME280;64176;49.156;7.810;2023-07-30T05:37:43;98795.75;;;17.98;100.00
75594;BME280;64176;49.156;7.810;2023-07-30T05:40:27;98795.25;;;18.13;100.00
75594;BME280;64176;49.156;7.810;2023-07-30T05:43:12;98805.72;;;18.13;100.00
75594;BME280;64176;49.156;7.810;2023-07-30T05:45:56;98806.88;;;18.05;100.00
75594;BME280;64176;49.156;7.810;2023-07-30T05:48:40;98797.84;;;18.13;100.00
75594;BME280;64176;49.156;7.810;2023-07-30T05:51:26;98796.97;;;18.14;100.00
75594;BME280;64176;49.156;7.810;2023-07-30T05:54:11;98799.53;;;18.16;100.00
75594;BME280;64176;49.156;7.810;2023-07-30T05:56:56;98812.91;;;18.07;100.00
75594;BME280;64176;49.156;7.810;2023-07-30T05:59:40;98805.91;;;18.07;100.00
75594;BME280;64176;49.156;7.810;2023-07-30T06:02:24;98802.09;;;18.17;100.00
75594;BME280;64176;49.156;7.810;2023-07-30T06:05:08;98813.06;;;18.29;100.00
75594;BME280;64176;49.156;7.810;2023-07-30T06:07:52;98815.38;;;18.38;100.00
75594;BME280;64176;49.156;7.810;2023-07-30T06:10:37;98809.56;;;18.30;100.00
75594;BME280;64176;49.156;7.810;2023-07-30T06:13:20;98811.03;;;18.37;100.00
75594;BME280;64176;49.156;7.810;2023-07-30T06:16:04;98811.00;;;18.38;100.00
75594;BME280;64176;49.156;7.810;2023-07-30T06:18:48;98814.44;;;18.40;100.00
75594;BME280;64176;49.156;7.810;2023-07-30T06:21:32;98824.53;;;18.51;100.00
75594;BME280;64176;49.156;7.810;2023-07-30T06:24:16;98825.91;;;18.63;100.00
75594;BME280;64176;49.156;7.810;2023-07-30T06:27:00;98824.31;;;18.57;100.00
75594;BME280;64176;49.156;7.810;2023-07-30T06:29:44;98820.84;;;18.56;100.00
75594;BME280;64176;49.156;7.810;2023-07-30T06:32:28;98826.69;;;18.66;100.00
75594;BME280;64176;49.156;7.810;2023-07-30T06:35:12;98828.53;;;18.63;100.00
75594;BME280;64176;49.156;7.810;2023-07-30T06:37:56;98835.53;;;18.62;100.00
75594;BME280;64176;49.156;7.810;2023-07-30T06:40:42;98848.34;;;18.43;100.00
75594;BME280;64176;49.156;7.810;2023-07-30T06:43:26;98844.75;;;18.46;100.00
75594;BME280;64176;49.156;7.810;2023-07-30T06:46:10;98839.59;;;18.44;100.00
75594;BME280;64176;49.156;7.810;2023-07-30T06:48:54;98850.34;;;18.35;99.59
75594;BME280;64176;49.156;7.810;2023-07-30T06:51:38;98862.22;;;18.45;98.72
75594;BME280;64176;49.156;7.810;2023-07-30T06:54:23;98868.25;;;18.47;100.00
75594;BME280;64176;49.156;7.810;2023-07-30T06:57:07;98865.69;;;18.74;98.91
75594;BME280;64176;49.156;7.810;2023-07-30T06:59:51;98866.63;;;18.71;95.76
75594;BME280;64176;49.156;7.810;2023-07-30T07:02:35;98870.66;;;18.55;94.57
75594;BME280;64176;49.156;7.810;2023-07-30T07:05:20;98855.03;;;18.78;95.00
75594;BME280;64176;49.156;7.810;2023-07-30T07:08:04;98860.94;;;18.85;94.84
75594;BME280;64176;49.156;7.810;2023-07-30T07:10:48;98871.19;;;18.66;94.81
75594;BME280;64176;49.156;7.810;2023-07-30T07:13:32;98867.63;;;18.67;93.38
75594;BME280;64176;49.156;7.810;2023-07-30T07:16:16;98860.13;;;19.33;89.77
75594;BME280;64176;49.156;7.810;2023-07-30T07:19:00;98861.72;;;20.50;85.36
75594;BME280;64176;49.156;7.810;2023-07-30T07:21:45;98847.16;;;21.04;79.30
75594;BME280;64176;49.156;7.810;2023-07-30T07:24:29;98859.50;;;19.96;83.39
75594;BME280;64176;49.156;7.810;2023-07-30T07:27:13;98871.28;;;19.62;86.58
75594;BME280;64176;49.156;7.810;2023-07-30T07:29:57;98865.91;;;19.66;86.41
75594;BME280;64176;49.156;7.810;2023-07-30T07:32:41;98879.13;;;19.38;86.97
75594;BME280;64176;49.156;7.810;2023-07-30T07:35:26;98876.03;;;19.02;85.67
75594;BME280;64176;49.156;7.810;2023-07-30T07:38:10;98872.91;;;19.17;86.74
75594;BME280;64176;49.156;7.810;2023-07-30T07:40:54;98877.75;;;19.27;84.62
75594;BME280;64176;49.156;7.810;2023-07-30T07:43:38;98881.72;;;19.14;85.80
75594;BME280;64176;49.156;7.810;2023-07-30T07:46:27;98879.59;;;19.74;84.75
75594;BME280;64176;49.156;7.810;2023-07-30T07:49:11;98881.34;;;19.73;82.96
75594;BME280;64176;49.156;7.810;2023-07-30T07:51:55;98880.38;;;19.52;84.89
75594;BME280;64176;49.156;7.810;2023-07-30T07:54:39;98880.03;;;19.61;83.03
75594;BME280;64176;49.156;7.810;2023-07-30T07:57:25;98884.47;;;19.83;82.74
75594;BME280;64176;49.156;7.810;2023-07-30T08:00:09;98884.28;;;19.66;83.12
75594;BME280;64176;49.156;7.810;2023-07-30T08:02:58;98879.75;;;19.44;83.49
75594;BME280;64176;49.156;7.810;2023-07-30T08:05:45;98882.31;;;19.94;81.71
75594;BME280;64176;49.156;7.810;2023-07-30T08:08:29;98883.78;;;19.78;81.69
75594;BME280;64176;49.156;7.810;2023-07-30T08:11:13;98885.88;;;19.91;80.32
75594;BME280;64176;49.156;7.810;2023-07-30T08:13:57;98890.97;;;19.96;80.01
75594;BME280;64176;49.156;7.810;2023-07-30T08:16:41;98891.53;;;20.04;80.14
75594;BME280;64176;49.156;7.810;2023-07-30T08:19:25;98902.44;;;19.93;81.24
75594;BME280;64176;49.156;7.810;2023-07-30T08:22:10;98890.94;;;19.51;82.01
75594;BME280;64176;49.156;7.810;2023-07-30T08:24:54;98901.47;;;19.48;81.83
75594;BME280;64176;49.156;7.810;2023-07-30T08:27:37;98895.06;;;19.56;81.95
75594;BME280;64176;49.156;7.810;2023-07-30T08:30:21;98901.22;;;19.55;81.61
75594;BME280;64176;49.156;7.810;2023-07-30T08:33:05;98909.56;;;19.42;81.58
75594;BME280;64176;49.156;7.810;2023-07-30T08:35:49;98902.09;;;19.79;80.72
75594;BME280;64176;49.156;7.810;2023-07-30T08:38:33;98904.00;;;19.76;80.13
75594;BME280;64176;49.156;7.810;2023-07-30T08:41:17;98907.69;;;19.45;80.97
75594;BME280;64176;49.156;7.810;2023-07-30T08:44:01;98901.00;;;19.61;80.69
75594;BME280;64176;49.156;7.810;2023-07-30T08:46:46;98907.34;;;19.79;79.51
75594;BME280;64176;49.156;7.810;2023-07-30T08:49:30;98911.56;;;19.83;78.92
75594;BME280;64176;49.156;7.810;2023-07-30T08:52:17;98910.81;;;19.56;78.70
75594;BME280;64176;49.156;7.810;2023-07-30T08:55:03;98928.38;;;19.54;78.45
75594;BME280;64176;49.156;7.810;2023-07-30T08:57:48;98932.31;;;19.16;77.02
75594;BME280;64176;49.156;7.810;2023-07-30T09:00:38;98935.19;;;19.09;76.98
75594;BME280;64176;49.156;7.810;2023-07-30T09:03:26;98945.25;;;19.71;75.46
75594;BME280;64176;49.156;7.810;2023-07-30T09:06:11;98932.09;;;19.72;75.06
75594;BME280;64176;49.156;7.810;2023-07-30T09:08:55;98940.25;;;19.65;74.13
75594;BME280;64176;49.156;7.810;2023-07-30T09:11:39;98946.16;;;19.20;75.63
75594;BME280;64176;49.156;7.810;2023-07-30T09:14:23;98948.22;;;19.61;75.83
75594;BME280;64176;49.156;7.810;2023-07-30T09:17:11;98934.59;;;19.75;73.70
75594;BME280;64176;49.156;7.810;2023-07-30T09:20:01;98935.47;;;19.76;74.20
75594;BME280;64176;49.156;7.810;2023-07-30T09:22:47;98927.47;;;19.79;72.82
75594;BME280;64176;49.156;7.810;2023-07-30T09:25:34;98935.38;;;19.54;72.65
75594;BME280;64176;49.156;7.810;2023-07-30T09:28:18;98940.13;;;19.91;72.42
75594;BME280;64176;49.156;7.810;2023-07-30T09:31:06;98937.63;;;19.88;71.36
75594;BME280;64176;49.156;7.810;2023-07-30T09:33:51;98942.78;;;20.13;70.05
75594;BME280;64176;49.156;7.810;2023-07-30T09:36:35;98936.66;;;20.79;68.04
75594;BME280;64176;49.156;7.810;2023-07-30T09:39:21;98949.75;;;21.01;68.61
75594;BME280;64176;49.156;7.810;2023-07-30T09:42:06;98951.94;;;20.48;66.79
75594;BME280;64176;49.156;7.810;2023-07-30T09:44:50;98946.47;;;20.54;67.24
75594;BME280;64176;49.156;7.810;2023-07-30T09:47:37;98955.63;;;20.20;68.54
75594;BME280;64176;49.156;7.810;2023-07-30T09:50:24;98973.19;;;19.72;69.39
75594;BME280;64176;49.156;7.810;2023-07-30T09:53:08;98970.00;;;19.63;70.01
75594;BME280;64176;49.156;7.810;2023-07-30T09:55:53;98984.56;;;19.21;71.00
75594;BME280;64176;49.156;7.810;2023-07-30T09:58:37;98992.19;;;19.01;71.17
75594;BME280;64176;49.156;7.810;2023-07-30T10:01:23;98995.63;;;19.29;70.64
75594;BME280;64176;49.156;7.810;2023-07-30T10:04:12;99001.56;;;19.34;70.11
75594;BME280;64176;49.156;7.810;2023-07-30T10:07:04;99006.03;;;19.82;69.42
75594;BME280;64176;49.156;7.810;2023-07-30T10:09:55;98999.13;;;19.79;67.67
75594;BME280;64176;49.156;7.810;2023-07-30T10:12:43;99008.56;;;19.34;66.39
75594;BME280;64176;49.156;7.810;2023-07-30T10:15:27;99004.59;;;19.48;66.42
75594;BME280;64176;49.156;7.810;2023-07-30T10:18:11;98986.09;;;19.53;64.53
75594;BME280;64176;49.156;7.810;2023-07-30T10:20:56;99009.38;;;19.62;64.40
75594;BME280;64176;49.156;7.810;2023-07-30T10:24:01;99004.41;;;19.78;64.99
75594;BME280;64176;49.156;7.810;2023-07-30T10:26:46;98998.16;;;19.82;64.65
75594;BME280;64176;49.156;7.810;2023-07-30T10:29:30;99003.47;;;19.80;65.72
75594;BME280;64176;49.156;7.810;2023-07-30T10:32:14;99015.94;;;19.74;63.34
75594;BME280;64176;49.156;7.810;2023-07-30T10:34:58;99015.78;;;19.53;62.05
75594;BME280;64176;49.156;7.810;2023-07-30T10:37:45;99018.72;;;19.18;60.82
75594;BME280;64176;49.156;7.810;2023-07-30T10:40:31;99024.09;;;19.13;62.03
75594;BME280;64176;49.156;7.810;2023-07-30T10:43:18;99014.78;;;19.05;61.74
75594;BME280;64176;49.156;7.810;2023-07-30T10:46:02;99001.47;;;19.37;61.77
75594;BME280;64176;49.156;7.810;2023-07-30T10:48:47;99004.72;;;19.93;60.53
75594;BME280;64176;49.156;7.810;2023-07-30T10:51:31;99007.19;;;19.98;59.41
75594;BME280;64176;49.156;7.810;2023-07-30T10:54:15;99002.50;;;19.83;58.52
75594;BME280;64176;49.156;7.810;2023-07-30T10:57:00;98995.91;;;19.96;57.67
75594;BME280;64176;49.156;7.810;2023-07-30T10:59:44;99013.66;;;20.36;57.62
75594;BME280;64176;49.156;7.810;2023-07-30T11:02:28;99020.97;;;20.51;56.59
75594;BME280;64176;49.156;7.810;2023-07-30T11:05:16;99017.78;;;19.95;55.95
75594;BME280;64176;49.156;7.810;2023-07-30T11:08:02;99005.34;;;20.00;54.94
75594;BME280;64176;49.156;7.810;2023-07-30T11:10:47;99017.81;;;20.18;55.99
75594;BME280;64176;49.156;7.810;2023-07-30T11:13:35;99013.94;;;20.52;55.80
75594;BME280;64176;49.156;7.810;2023-07-30T11:16:20;99012.41;;;20.68;53.97
75594;BME280;64176;49.156;7.810;2023-07-30T11:19:09;98997.91;;;21.01;54.87
75594;BME280;64176;49.156;7.810;2023-07-30T11:21:58;99002.69;;;20.92;55.50
75594;BME280;64176;49.156;7.810;2023-07-30T11:24:42;99018.56;;;21.11;54.83
75594;BME280;64176;49.156;7.810;2023-07-30T11:27:26;99020.22;;;20.48;55.65
75594;BME280;64176;49.156;7.810;2023-07-30T11:30:12;99018.78;;;20.62;54.75
75594;BME280;64176;49.156;7.810;2023-07-30T11:32:57;99011.97;;;21.00;53.72
75594;BME280;64176;49.156;7.810;2023-07-30T11:35:41;99018.88;;;20.59;53.51
75594;BME280;64176;49.156;7.810;2023-07-30T11:38:26;99013.16;;;20.71;53.43
75594;BME280;64176;49.156;7.810;2023-07-30T11:41:12;99012.53;;;21.08;54.54
75594;BME280;64176;49.156;7.810;2023-07-30T11:43:59;99024.38;;;20.53;53.76
75594;BME280;64176;49.156;7.810;2023-07-30T11:46:53;99010.16;;;20.59;54.55
75594;BME280;64176;49.156;7.810;2023-07-30T11:49:38;99013.31;;;20.89;54.67
75594;BME280;64176;49.156;7.810;2023-07-30T11:52:22;99000.44;;;20.61;53.50
75594;BME280;64176;49.156;7.810;2023-07-30T11:55:06;99003.19;;;20.80;53.80
75594;BME280;64176;49.156;7.810;2023-07-30T11:57:53;99020.13;;;20.73;52.72
75594;BME280;64176;49.156;7.810;2023-07-30T12:00:43;99016.19;;;20.61;52.57
75594;BME280;64176;49.156;7.810;2023-07-30T12:03:27;99025.81;;;20.84;54.17
75594;BME280;64176;49.156;7.810;2023-07-30T12:06:12;99039.16;;;20.56;53.31
75594;BME280;64176;49.156;7.810;2023-07-30T12:08:56;99031.38;;;20.98;52.82
75594;BME280;64176;49.156;7.810;2023-07-30T12:11:56;99023.16;;;21.27;52.13
75594;BME280;64176;49.156;7.810;2023-07-30T12:14:53;99032.28;;;20.75;52.86
75594;BME280;64176;49.156;7.810;2023-07-30T12:17:38;99035.63;;;21.00;51.53
75594;BME280;64176;49.156;7.810;2023-07-30T12:20:27;99039.22;;;21.41;51.02
75594;BME280;64176;49.156;7.810;2023-07-30T12:23:11;99048.97;;;21.60;50.72
75594;BME280;64176;49.156;7.810;2023-07-30T12:25:55;99049.69;;;21.21;52.17
75594;BME280;64176;49.156;7.810;2023-07-30T12:28:42;99051.13;;;21.70;51.07
75594;BME280;64176;49.156;7.810;2023-07-30T12:31:28;99052.88;;;20.86;52.00
75594;BME280;64176;49.156;7.810;2023-07-30T12:34:12;99048.97;;;20.96;52.94
75594;BME280;64176;49.156;7.810;2023-07-30T12:36:59;99068.25;;;20.73;53.12
75594;BME280;64176;49.156;7.810;2023-07-30T12:39:43;99050.66;;;20.53;52.22
75594;BME280;64176;49.156;7.810;2023-07-30T12:42:30;99061.34;;;20.92;50.89
75594;BME280;64176;49.156;7.810;2023-07-30T12:45:15;99057.88;;;21.35;49.08
75594;BME280;64176;49.156;7.810;2023-07-30T12:48:00;99055.19;;;21.77;47.88
75594;BME280;64176;49.156;7.810;2023-07-30T12:50:45;99057.38;;;21.68;45.88
75594;BME280;64176;49.156;7.810;2023-07-30T12:53:29;99052.31;;;21.63;43.89
75594;BME280;64176;49.156;7.810;2023-07-30T12:56:15;99065.84;;;21.54;45.37
75594;BME280;64176;49.156;7.810;2023-07-30T12:58:59;99063.72;;;21.64;47.41
75594;BME280;64176;49.156;7.810;2023-07-30T13:01:43;99066.91;;;21.50;46.73
75594;BME280;64176;49.156;7.810;2023-07-30T13:04:30;99069.59;;;21.05;48.48
75594;BME280;64176;49.156;7.810;2023-07-30T13:07:14;99078.09;;;21.33;50.38
75594;BME280;64176;49.156;7.810;2023-07-30T13:10:05;99076.06;;;21.20;49.35
75594;BME280;64176;49.156;7.810;2023-07-30T13:12:50;99071.44;;;21.03;48.81
75594;BME280;64176;49.156;7.810;2023-07-30T13:15:34;99057.53;;;21.65;49.60
75594;BME280;64176;49.156;7.810;2023-07-30T13:18:18;99070.16;;;21.35;47.72
75594;BME280;64176;49.156;7.810;2023-07-30T13:21:02;99076.44;;;21.53;46.57
75594;BME280;64176;49.156;7.810;2023-07-30T13:23:47;99065.03;;;21.74;45.24
75594;BME280;64176;49.156;7.810;2023-07-30T13:26:31;99093.00;;;21.55;45.62
75594;BME280;64176;49.156;7.810;2023-07-30T13:29:15;99076.75;;;21.45;46.69
75594;BME280;64176;49.156;7.810;2023-07-30T13:31:59;99093.50;;;21.64;46.74
75594;BME280;64176;49.156;7.810;2023-07-30T13:34:45;99095.84;;;21.70;46.54
75594;BME280;64176;49.156;7.810;2023-07-30T13:37:29;99109.31;;;21.42;46.79
75594;BME280;64176;49.156;7.810;2023-07-30T13:40:13;99089.28;;;21.18;45.38
75594;BME280;64176;49.156;7.810;2023-07-30T13:42:57;99097.78;;;21.45;44.78
75594;BME280;64176;49.156;7.810;2023-07-30T13:45:46;99096.81;;;21.04;43.56
75594;BME280;64176;49.156;7.810;2023-07-30T13:48:34;99097.81;;;21.23;44.53
75594;BME280;64176;49.156;7.810;2023-07-30T13:51:18;99107.91;;;21.54;44.52
75594;BME280;64176;49.156;7.810;2023-07-30T13:54:04;99107.09;;;21.32;44.79
75594;BME280;64176;49.156;7.810;2023-07-30T13:56:51;99108.25;;;21.47;44.97
75594;BME280;64176;49.156;7.810;2023-07-30T13:59:35;99105.97;;;21.59;44.53
75594;BME280;64176;49.156;7.810;2023-07-30T14:02:21;99108.72;;;21.56;45.18
75594;BME280;64176;49.156;7.810;2023-07-30T14:05:06;99100.88;;;21.55;44.72
75594;BME280;64176;49.156;7.810;2023-07-30T14:07:52;99110.41;;;21.99;45.49
75594;BME280;64176;49.156;7.810;2023-07-30T14:10:37;99113.34;;;21.29;44.50
75594;BME280;64176;49.156;7.810;2023-07-30T14:13:24;99103.81;;;21.89;43.36
75594;BME280;64176;49.156;7.810;2023-07-30T14:16:08;99097.38;;;21.76;43.82
75594;BME280;64176;49.156;7.810;2023-07-30T14:18:52;99102.88;;;21.90;43.78
75594;BME280;64176;49.156;7.810;2023-07-30T14:21:36;99097.19;;;22.01;43.69
75594;BME280;64176;49.156;7.810;2023-07-30T14:24:22;99095.00;;;22.31;43.15
75594;BME280;64176;49.156;7.810;2023-07-30T14:27:07;99107.63;;;21.62;43.98
75594;BME280;64176;49.156;7.810;2023-07-30T14:29:53;99106.53;;;21.46;45.21